createdAt,value
2018-11-01T00:00:14.114Z,7.21
2018-11-01T00:02:43.246Z,7.62
2018-11-01T00:05:12.555Z,7.56
2018-11-01T00:07:41.995Z,7.53
2018-11-01T00:10:11.271Z,7.57
2018-11-01T00:12:41.515Z,7.75
2018-11-01T00:15:12.971Z,7.71
2018-11-01T00:17:42.261Z,7.66
2018-11-01T00:20:12.816Z,7.66
2018-11-01T00:22:42.598Z,7.67
2018-11-01T00:25:12.839Z,7.62
2018-11-01T00:27:42.527Z,7.59
2018-11-01T00:30:11.706Z,7.55
2018-11-01T00:32:40.874Z,7.52
2018-11-01T00:35:10.089Z,7.48
2018-11-01T00:37:39.215Z,7.45
2018-11-01T00:40:10.541Z,7.42
2018-11-01T00:42:39.648Z,7.40
2018-11-01T00:45:10.106Z,7.34
2018-11-01T00:47:39.305Z,7.25
2018-11-01T00:50:10.901Z,7.22
2018-11-01T00:52:40.550Z,7.22
2018-11-01T00:55:10.864Z,7.23
2018-11-01T00:57:40.691Z,7.26
2018-11-01T01:00:12.062Z,7.25
2018-11-01T01:02:41.235Z,7.27
2018-11-01T01:05:11.290Z,7.30
2018-11-01T01:07:40.416Z,7.33
2018-11-01T01:10:12.979Z,7.33
2018-11-01T01:12:43.106Z,7.30
2018-11-01T01:15:12.457Z,7.27
2018-11-01T01:17:41.583Z,7.21
2018-11-01T01:20:12.817Z,7.21
2018-11-01T01:22:42.962Z,7.20
2018-11-01T01:25:13.487Z,7.20
2018-11-01T01:27:42.687Z,7.15
2018-11-01T01:30:15.356Z,7.14
2018-11-01T01:32:44.949Z,7.14
2018-11-01T01:35:14.452Z,7.12
2018-11-01T01:37:43.950Z,7.10
2018-11-01T01:40:13.160Z,7.10
2018-11-01T01:42:47.583Z,7.14
2018-11-01T01:45:16.833Z,7.10
2018-11-01T01:47:46.006Z,7.04
2018-11-01T01:50:15.890Z,7.03
2018-11-01T01:52:45.603Z,6.99
2018-11-01T01:55:14.791Z,6.89
2018-11-01T01:57:44.057Z,6.89
2018-11-01T02:00:15.478Z,6.86
2018-11-01T02:02:45.987Z,6.86
2018-11-01T02:05:15.151Z,6.82
2018-11-01T02:07:44.315Z,6.79
2018-11-01T02:10:14.652Z,6.74
2018-11-01T02:12:43.757Z,6.74
2018-11-01T02:15:15.238Z,6.73
2018-11-01T02:17:44.830Z,6.73
2018-11-01T02:20:15.677Z,6.73
2018-11-01T02:22:45.288Z,6.69
2018-11-01T02:25:14.462Z,6.67
2018-11-01T02:27:48.976Z,6.65
2018-11-01T02:30:18.800Z,6.60
2018-11-01T02:32:48.032Z,6.60
2018-11-01T02:35:18.333Z,6.58
2018-11-01T02:37:47.598Z,6.60
2018-11-01T02:40:17.144Z,6.63
2018-11-01T02:42:46.352Z,6.58
2018-11-01T02:45:16.065Z,6.56
2018-11-01T02:47:45.205Z,6.58
2018-11-01T02:50:14.866Z,6.62
2018-11-01T02:52:44.055Z,6.63
2018-11-01T02:55:13.150Z,6.65
2018-11-01T02:57:42.307Z,6.63
2018-11-01T03:00:13.100Z,6.66
2018-11-01T03:02:42.265Z,6.68
2018-11-01T03:05:12.710Z,6.67
2018-11-01T03:07:42.032Z,6.66
2018-11-01T03:10:12.765Z,6.66
2018-11-01T03:12:42.137Z,6.66
2018-11-01T03:15:14.326Z,6.49
2018-11-01T03:17:43.479Z,6.53
2018-11-01T03:20:13.313Z,6.36
2018-11-01T03:22:42.533Z,6.28
2018-11-01T03:25:11.942Z,6.17
2018-11-01T03:27:41.072Z,6.08
2018-11-01T03:30:10.655Z,6.03
2018-11-01T03:32:39.948Z,6.06
2018-11-01T03:35:10.094Z,6.08
2018-11-01T03:37:39.243Z,6.05
2018-11-01T03:40:09.502Z,6.07
2018-11-01T03:42:39.167Z,6.08
2018-11-01T03:45:09.602Z,6.09
2018-11-01T03:47:38.902Z,6.11
2018-11-01T03:50:08.297Z,6.09
2018-11-01T03:52:37.632Z,6.06
2018-11-01T03:55:08.533Z,6.04
2018-11-01T03:57:37.650Z,6.05
2018-11-01T04:00:10.209Z,6.04
2018-11-01T04:02:39.337Z,6.04
2018-11-01T04:05:08.661Z,6.00
2018-11-01T04:07:38.016Z,5.98
2018-11-01T04:10:08.079Z,5.96
2018-11-01T04:12:37.344Z,5.87
2018-11-01T04:15:09.030Z,5.85
2018-11-01T04:17:38.156Z,5.83
2018-11-01T04:20:08.509Z,5.81
2018-11-01T04:22:37.630Z,5.80
2018-11-01T04:25:07.076Z,5.80
2018-11-01T04:27:36.209Z,5.79
2018-11-01T04:30:05.991Z,5.75
2018-11-01T04:32:35.115Z,5.70
2018-11-01T04:35:04.281Z,5.70
2018-11-01T04:37:33.391Z,5.69
2018-11-01T04:40:02.574Z,5.65
2018-11-01T04:42:31.700Z,5.67
2018-11-01T04:45:00.940Z,5.68
2018-11-01T04:47:30.135Z,5.68
2018-11-01T04:49:59.161Z,5.65
2018-11-01T04:52:28.402Z,5.61
2018-11-01T04:54:57.522Z,5.53
2018-11-01T04:57:26.619Z,5.50
2018-11-01T04:59:55.897Z,5.48
2018-11-01T05:02:24.997Z,5.43
2018-11-01T05:04:54.162Z,5.40
2018-11-01T05:07:23.278Z,5.40
2018-11-01T05:09:52.402Z,5.39
2018-11-01T05:12:21.565Z,5.33
2018-11-01T05:14:50.701Z,5.35
2018-11-01T05:17:19.813Z,5.36
2018-11-01T05:19:48.959Z,5.36
2018-11-01T05:22:18.106Z,5.38
2018-11-01T05:24:47.313Z,5.40
2018-11-01T05:27:16.353Z,5.42
2018-11-01T05:29:45.489Z,5.44
2018-11-01T05:32:14.726Z,5.42
2018-11-01T05:34:43.894Z,5.39
2018-11-01T05:37:13.027Z,5.39
2018-11-01T05:39:42.187Z,5.38
2018-11-01T05:42:11.359Z,5.39
2018-11-01T05:44:40.482Z,5.39
2018-11-01T05:47:09.635Z,5.39
2018-11-01T05:49:38.758Z,5.35
2018-11-01T05:52:07.973Z,5.30
2018-11-01T05:54:37.146Z,5.30
2018-11-01T05:57:06.366Z,5.28
2018-11-01T05:59:35.506Z,5.27
2018-11-01T06:02:36.555Z,5.27
2018-11-01T06:05:07.046Z,5.25
2018-11-01T06:07:55.295Z,5.17
2018-11-01T06:10:24.503Z,5.20
2018-11-01T06:12:53.616Z,5.23
2018-11-01T06:15:23.103Z,5.27
2018-11-01T06:17:52.266Z,5.31
2018-11-01T06:20:21.455Z,5.36
2018-11-01T06:22:50.545Z,5.40
2018-11-01T06:25:19.693Z,5.44
2018-11-01T06:27:48.874Z,5.51
2018-11-01T06:30:18.192Z,5.54
2018-11-01T06:32:47.944Z,5.58
2018-11-01T06:35:22.120Z,5.63
2018-11-01T06:37:51.276Z,5.66
2018-11-01T06:40:20.368Z,5.72
2018-11-01T06:42:49.504Z,5.80
2018-11-01T06:45:19.050Z,5.89
2018-11-01T06:47:48.190Z,5.93
2018-11-01T06:50:17.400Z,5.96
2018-11-01T06:52:46.528Z,6.04
2018-11-01T06:55:15.696Z,6.09
2018-11-01T06:57:44.828Z,6.14
2018-11-01T07:00:15.044Z,6.24
2018-11-01T07:02:44.345Z,6.34
2018-11-01T07:05:13.462Z,6.40
2018-11-01T07:07:42.638Z,6.47
2018-11-01T07:10:14.441Z,6.55
2018-11-01T07:12:43.568Z,6.56
2018-11-01T07:15:14.255Z,6.67
2018-11-01T07:17:43.543Z,6.76
2018-11-01T07:20:13.969Z,6.94
2018-11-01T07:22:43.678Z,7.19
2018-11-01T07:25:14.082Z,7.44
2018-11-01T07:27:43.200Z,7.56
2018-11-01T07:30:15.076Z,7.70
2018-11-01T07:32:44.575Z,7.84
2018-11-01T07:35:14.280Z,7.92
2018-11-01T07:37:44.300Z,8.02
2018-11-01T07:40:14.560Z,8.12
2018-11-01T07:42:43.709Z,8.19
2018-11-01T07:45:13.544Z,8.27
2018-11-01T07:47:43.659Z,8.40
2018-11-01T07:50:13.701Z,8.41
2018-11-01T07:52:42.938Z,8.49
2018-11-01T07:55:13.540Z,8.51
2018-11-01T07:57:42.740Z,8.50
2018-11-01T08:00:14.314Z,8.62
2018-11-01T08:02:44.247Z,8.73
2018-11-01T08:05:13.667Z,8.79
2018-11-01T08:07:43.182Z,8.94
2018-11-01T08:10:18.310Z,9.09
2018-11-01T08:12:48.227Z,9.22
2018-11-01T08:15:18.740Z,9.33
2018-11-01T08:17:47.867Z,9.47
2018-11-01T08:20:17.823Z,9.56
2018-11-01T08:22:46.790Z,9.63
2018-11-01T08:25:16.124Z,9.63
2018-11-01T08:27:45.419Z,9.58
2018-11-01T08:30:15.774Z,9.51
2018-11-01T08:32:44.902Z,9.48
2018-11-01T08:35:14.228Z,9.59
2018-11-01T08:37:44.828Z,9.75
2018-11-01T08:40:14.485Z,9.89
2018-11-01T08:42:43.817Z,10.03
2018-11-01T08:45:14.361Z,10.09
2018-11-01T08:47:43.538Z,10.13
2018-11-01T08:50:13.997Z,10.11
2018-11-01T08:52:43.689Z,10.14
2018-11-01T08:55:13.348Z,10.18
2018-11-01T08:57:43.616Z,10.21
2018-11-01T09:00:13.438Z,10.33
2018-11-01T09:02:43.223Z,10.48
2018-11-01T09:05:13.273Z,10.63
2018-11-01T09:07:42.676Z,10.80
2018-11-01T09:10:13.726Z,11.00
2018-11-01T09:12:42.923Z,11.15
2018-11-01T09:15:13.426Z,11.34
2018-11-01T09:17:42.979Z,11.46
2018-11-01T09:20:12.704Z,11.65
2018-11-01T09:22:42.687Z,11.79
2018-11-01T09:25:11.953Z,11.89
2018-11-01T09:27:41.078Z,12.02
2018-11-01T09:30:12.203Z,12.35
2018-11-01T09:32:41.645Z,12.66
2018-11-01T09:35:11.740Z,12.90
2018-11-01T09:37:41.807Z,13.19
2018-11-01T09:40:12.597Z,13.47
2018-11-01T09:42:42.211Z,13.73
2018-11-01T09:45:12.312Z,14.01
2018-11-01T09:47:41.836Z,14.36
2018-11-01T09:50:11.452Z,14.51
2018-11-01T09:52:40.942Z,14.86
2018-11-01T09:55:10.162Z,15.15
2018-11-01T09:57:39.318Z,15.39
2018-11-01T10:00:10.365Z,15.66
2018-11-01T10:02:39.554Z,15.89
2018-11-01T10:05:09.754Z,16.24
2018-11-01T10:07:39.052Z,16.63
2018-11-01T10:10:10.364Z,16.91
2018-11-01T10:12:40.046Z,17.07
2018-11-01T10:15:10.357Z,16.93
2018-11-01T10:17:39.800Z,16.90
2018-11-01T10:20:10.633Z,16.82
2018-11-01T10:22:39.918Z,16.78
2018-11-01T10:25:11.178Z,17.05
2018-11-01T10:27:40.405Z,18.11
2018-11-01T10:30:19.070Z,18.55
2018-11-01T10:32:48.217Z,18.73
2018-11-01T10:35:18.298Z,18.92
2018-11-01T10:37:47.454Z,19.15
2018-11-01T10:40:18.011Z,19.25
2018-11-01T10:42:47.183Z,19.30
2018-11-01T10:45:16.401Z,19.43
2018-11-01T10:47:45.712Z,19.71
2018-11-01T10:50:18.374Z,20.07
2018-11-01T10:52:47.585Z,20.12
2018-11-01T10:55:16.741Z,20.20
2018-11-01T10:57:45.885Z,20.33
2018-11-01T11:00:20.440Z,20.37
2018-11-01T11:02:50.740Z,20.43
2018-11-01T11:05:21.074Z,20.46
2018-11-01T11:07:50.612Z,20.45
2018-11-01T11:10:20.179Z,20.56
2018-11-01T11:12:49.317Z,20.52
2018-11-01T11:15:18.439Z,20.56
2018-11-01T11:17:47.567Z,20.65
2018-11-01T11:20:16.949Z,20.43
2018-11-01T11:22:45.938Z,20.40
2018-11-01T11:25:15.064Z,20.43
2018-11-01T11:27:44.239Z,20.61
2018-11-01T11:30:13.848Z,20.67
2018-11-01T11:32:43.018Z,20.54
2018-11-01T11:35:13.041Z,20.49
2018-11-01T11:37:42.146Z,20.51
2018-11-01T11:40:12.084Z,20.52
2018-11-01T11:42:41.408Z,20.54
2018-11-01T11:45:12.616Z,20.59
2018-11-01T11:47:42.371Z,20.56
2018-11-01T11:50:12.766Z,20.35
2018-11-01T11:52:42.990Z,20.39
2018-11-01T11:55:12.239Z,20.39
2018-11-01T11:57:41.369Z,20.40
2018-11-01T12:00:12.838Z,20.29
2018-11-01T12:02:42.011Z,20.16
2018-11-01T12:05:11.544Z,20.03
2018-11-01T12:07:40.708Z,20.05
2018-11-01T12:10:11.687Z,20.09
2018-11-01T12:12:40.826Z,19.88
2018-11-01T12:15:10.075Z,19.92
2018-11-01T12:17:39.375Z,19.79
2018-11-01T12:20:10.496Z,19.68
2018-11-01T12:22:39.623Z,19.63
2018-11-01T12:25:09.458Z,19.59
2018-11-01T12:27:39.035Z,19.62
2018-11-01T12:30:09.977Z,19.62
2018-11-01T12:32:39.301Z,19.76
2018-11-01T12:35:09.464Z,19.87
2018-11-01T12:37:38.725Z,19.88
2018-11-01T12:40:09.743Z,19.90
2018-11-01T12:42:38.889Z,19.84
2018-11-01T12:45:09.672Z,19.90
2018-11-01T12:47:38.814Z,19.98
2018-11-01T12:50:09.972Z,20.20
2018-11-01T12:52:39.027Z,20.21
2018-11-01T12:55:08.364Z,20.24
2018-11-01T12:57:37.624Z,20.38
2018-11-01T13:00:08.063Z,20.55
2018-11-01T13:02:37.286Z,20.69
2018-11-01T13:05:06.421Z,20.77
2018-11-01T13:07:35.598Z,20.83
2018-11-01T13:10:05.213Z,20.86
2018-11-01T13:12:34.542Z,20.91
2018-11-01T13:15:03.761Z,20.84
2018-11-01T13:17:32.931Z,20.80
2018-11-01T13:20:02.098Z,20.78
2018-11-01T13:22:31.274Z,20.84
2018-11-01T13:25:00.430Z,20.84
2018-11-01T13:27:29.568Z,20.87
2018-11-01T13:29:58.731Z,20.80
2018-11-01T13:32:27.914Z,20.71
2018-11-01T13:34:57.230Z,20.66
2018-11-01T13:37:26.456Z,20.69
2018-11-01T13:39:55.773Z,20.70
2018-11-01T13:42:24.777Z,20.64
2018-11-01T13:44:53.929Z,20.59
2018-11-01T13:47:23.218Z,20.62
2018-11-01T13:49:52.329Z,20.56
2018-11-01T13:52:21.637Z,20.62
2018-11-01T13:54:50.990Z,20.58
2018-11-01T13:57:20.146Z,20.56
2018-11-01T13:59:49.333Z,20.53
2018-11-01T14:02:18.494Z,20.39
2018-11-01T14:04:47.638Z,20.38
2018-11-01T14:07:16.847Z,20.36
2018-11-01T14:09:46.002Z,20.37
2018-11-01T14:12:15.168Z,20.43
2018-11-01T14:14:44.704Z,20.46
2018-11-01T14:17:13.475Z,20.48
2018-11-01T14:19:42.631Z,20.44
2018-11-01T14:22:11.837Z,20.40
2018-11-01T14:24:40.994Z,20.41
2018-11-01T14:27:10.360Z,20.44
2018-11-01T14:29:39.655Z,20.40
2018-11-01T14:32:08.943Z,20.36
2018-11-01T14:34:38.153Z,20.38
2018-11-01T14:37:07.457Z,20.44
2018-11-01T14:39:36.678Z,20.31
2018-11-01T14:42:06.178Z,20.08
2018-11-01T14:44:35.345Z,20.15
2018-11-01T14:47:04.550Z,20.20
2018-11-01T14:49:33.690Z,20.14
2018-11-01T14:52:03.235Z,20.09
2018-11-01T14:54:33.241Z,20.13
2018-11-01T14:57:02.863Z,20.07
2018-11-01T14:59:33.084Z,20.02
2018-11-01T15:02:00.107Z,19.97
2018-11-01T15:04:29.672Z,19.96
2018-11-01T15:06:58.841Z,19.99
2018-11-01T15:09:28.028Z,20.05
2018-11-01T15:11:57.193Z,20.08
2018-11-01T15:14:26.325Z,19.89
2018-11-01T15:16:55.482Z,19.78
2018-11-01T15:23:02.423Z,19.62
2018-11-01T15:25:31.642Z,19.60
2018-11-01T15:28:00.816Z,19.57
2018-11-01T15:30:30.186Z,19.67
2018-11-01T15:32:59.331Z,19.57
2018-11-01T15:35:28.491Z,19.47
2018-11-01T15:37:57.782Z,19.32
2018-11-01T15:40:27.021Z,19.08
2018-11-01T15:42:56.226Z,18.95
2018-11-01T15:45:25.501Z,18.91
2018-11-01T15:47:54.725Z,18.80
2018-11-01T15:50:24.001Z,18.68
2018-11-01T15:52:53.272Z,18.62
2018-11-01T15:55:22.471Z,18.44
2018-11-01T15:57:51.814Z,18.35
2018-11-01T16:00:21.045Z,18.38
2018-11-01T16:02:50.195Z,18.32
2018-11-01T16:05:19.485Z,18.18
2018-11-01T16:07:48.667Z,18.07
2018-11-01T16:10:18.203Z,17.95
2018-11-01T16:12:47.314Z,17.97
2018-11-01T16:15:17.272Z,17.96
2018-11-01T16:17:46.591Z,17.92
2018-11-01T16:20:15.873Z,17.72
2018-11-01T16:22:44.951Z,17.59
2018-11-01T16:25:14.264Z,17.42
2018-11-01T16:27:43.489Z,17.36
2018-11-01T16:30:12.797Z,17.25
2018-11-01T16:32:41.972Z,17.10
2018-11-01T16:35:11.984Z,17.11
2018-11-01T16:37:41.274Z,17.29
2018-11-01T16:40:11.510Z,17.64
2018-11-01T16:42:40.842Z,17.92
2018-11-01T16:45:12.237Z,18.10
2018-11-01T16:47:41.438Z,18.24
2018-11-01T16:50:11.739Z,18.33
2018-11-01T16:52:41.891Z,18.35
2018-11-01T16:55:12.365Z,18.39
2018-11-01T16:57:41.532Z,18.51
2018-11-01T17:00:12.085Z,18.60
2018-11-01T17:02:41.587Z,18.63
2018-11-01T17:05:11.465Z,18.62
2018-11-01T17:07:40.770Z,18.64
2018-11-01T17:10:11.514Z,18.68
2018-11-01T17:12:40.723Z,18.54
2018-11-01T17:15:12.782Z,18.50
2018-11-01T17:17:41.936Z,18.38
2018-11-01T17:20:11.198Z,18.26
2018-11-01T17:22:40.666Z,18.23
2018-11-01T17:25:10.123Z,18.07
2018-11-01T17:27:39.274Z,17.97
2018-11-01T17:30:09.631Z,17.87
2018-11-01T17:32:44.022Z,17.79
2018-11-01T17:35:13.419Z,17.62
2018-11-01T17:37:42.665Z,17.60
2018-11-01T17:40:12.125Z,17.46
2018-11-01T17:42:41.854Z,17.36
2018-11-01T17:45:11.961Z,17.35
2018-11-01T17:47:41.591Z,17.39
2018-11-01T17:50:12.948Z,17.28
2018-11-01T17:52:42.693Z,17.12
2018-11-01T17:55:11.978Z,16.96
2018-11-01T17:57:41.776Z,16.90
2018-11-01T18:00:12.630Z,16.90
2018-11-01T18:02:42.555Z,16.91
2018-11-01T18:05:12.565Z,16.94
2018-11-01T18:07:42.278Z,16.96
2018-11-01T18:10:12.641Z,16.84
2018-11-01T18:12:41.978Z,16.76
2018-11-01T18:15:11.892Z,16.67
2018-11-01T18:17:41.158Z,16.46
2018-11-01T18:20:11.746Z,16.33
2018-11-01T18:22:41.069Z,16.18
2018-11-01T18:25:11.975Z,16.03
2018-11-01T18:27:41.600Z,15.95
2018-11-01T18:30:13.049Z,15.86
2018-11-01T18:32:42.877Z,15.80
2018-11-01T18:35:12.693Z,15.88
2018-11-01T18:37:43.067Z,15.86
2018-11-01T18:40:14.760Z,15.89
2018-11-01T18:42:43.935Z,15.92
2018-11-01T18:45:14.164Z,15.93
2018-11-01T18:47:43.854Z,15.97
2018-11-01T18:50:14.498Z,15.88
2018-11-01T18:52:43.663Z,15.77
2018-11-01T18:55:13.173Z,15.67
2018-11-01T18:57:42.369Z,15.59
2018-11-01T19:00:14.329Z,15.62
2018-11-01T19:02:43.663Z,15.60
2018-11-01T19:05:13.259Z,15.62
2018-11-01T19:07:43.153Z,15.55
2018-11-01T19:10:12.942Z,15.54
2018-11-01T19:12:42.157Z,15.58
2018-11-01T19:15:12.646Z,15.56
2018-11-01T19:17:42.203Z,15.56
2018-11-01T19:20:12.254Z,15.58
2018-11-01T19:22:41.526Z,15.50
2018-11-01T19:25:11.417Z,15.48
2018-11-01T19:27:40.708Z,15.46
2018-11-01T19:30:11.574Z,15.40
2018-11-01T19:32:40.837Z,15.39
2018-11-01T19:35:11.509Z,15.35
2018-11-01T19:37:40.880Z,15.29
2018-11-01T19:40:12.894Z,15.18
2018-11-01T19:42:42.500Z,15.03
2018-11-01T19:45:12.379Z,14.69
2018-11-01T19:47:41.675Z,14.72
2018-11-01T19:50:12.847Z,14.63
2018-11-01T19:52:42.170Z,14.59
2018-11-01T19:55:12.086Z,14.59
2018-11-01T19:57:41.772Z,14.61
2018-11-01T20:00:12.944Z,14.63
2018-11-01T20:02:42.110Z,14.45
2018-11-01T20:05:11.855Z,14.48
2018-11-01T20:07:41.063Z,14.47
2018-11-01T20:10:11.956Z,14.43
2018-11-01T20:12:41.238Z,14.32
2018-11-01T20:15:10.613Z,14.24
2018-11-01T20:17:39.837Z,14.19
2018-11-01T20:20:10.913Z,14.12
2018-11-01T20:22:40.700Z,13.98
2018-11-01T20:25:10.294Z,13.90
2018-11-01T20:27:39.560Z,13.92
2018-11-01T20:30:10.890Z,13.93
2018-11-01T20:32:40.513Z,13.84
2018-11-01T20:35:11.179Z,13.76
2018-11-01T20:37:40.560Z,13.64
2018-11-01T20:40:09.808Z,13.50
2018-11-01T20:42:39.421Z,13.41
2018-11-01T20:45:10.041Z,13.69
2018-11-01T20:47:39.202Z,14.04
2018-11-01T20:50:09.604Z,14.31
2018-11-01T20:52:38.834Z,14.53
2018-11-01T20:55:08.249Z,14.70
2018-11-01T20:57:37.629Z,14.81
2018-11-01T21:00:09.007Z,14.91
2018-11-01T21:02:38.290Z,14.95
2018-11-01T21:05:07.833Z,15.03
2018-11-01T21:07:36.995Z,15.04
2018-11-01T21:10:07.591Z,14.92
2018-11-01T21:12:37.338Z,14.80
2018-11-01T21:15:08.291Z,14.69
2018-11-01T21:17:37.516Z,14.56
2018-11-01T21:20:06.878Z,14.33
2018-11-01T21:22:36.022Z,14.22
2018-11-01T21:25:05.719Z,14.20
2018-11-01T21:27:34.835Z,14.17
2018-11-01T21:30:04.161Z,14.17
2018-11-01T21:32:33.394Z,14.12
2018-11-01T21:35:02.715Z,13.96
2018-11-01T21:37:32.132Z,13.72
2018-11-01T21:40:01.260Z,13.57
2018-11-01T21:42:30.381Z,13.41
2018-11-01T21:44:59.662Z,13.31
2018-11-01T21:47:28.790Z,13.20
2018-11-01T21:49:57.928Z,13.10
2018-11-01T21:52:27.094Z,13.02
2018-11-01T21:54:57.103Z,12.96
2018-11-01T21:57:26.269Z,12.88
2018-11-01T21:59:55.402Z,12.79
2018-11-01T22:02:24.558Z,12.77
2018-11-01T22:04:53.699Z,12.67
2018-11-01T22:07:22.891Z,12.63
2018-11-01T22:09:52.311Z,12.58
2018-11-01T22:12:21.266Z,12.50
2018-11-01T22:14:50.418Z,12.45
2018-11-01T22:17:19.538Z,12.36
2018-11-01T22:19:48.702Z,12.27
2018-11-01T22:22:17.873Z,12.13
2018-11-01T22:24:47.082Z,12.04
2018-11-01T22:27:16.210Z,11.99
2018-11-01T22:29:45.402Z,11.96
2018-11-01T22:32:14.636Z,11.91
2018-11-01T22:34:43.737Z,11.80
2018-11-01T22:37:12.875Z,11.71
2018-11-01T22:39:42.006Z,11.53
2018-11-01T22:42:11.151Z,11.47
2018-11-01T22:44:40.288Z,11.46
2018-11-01T22:47:09.689Z,11.41
2018-11-01T22:49:38.826Z,11.36
2018-11-01T22:52:08.561Z,11.30
2018-11-01T22:54:37.872Z,11.21
2018-11-01T22:57:07.258Z,11.14
2018-11-01T22:59:36.420Z,11.13
2018-11-01T23:02:05.636Z,11.08
2018-11-01T23:04:34.840Z,10.99
2018-11-01T23:07:04.101Z,10.89
2018-11-01T23:09:33.260Z,10.80
2018-11-01T23:12:02.447Z,10.72
2018-11-01T23:14:31.610Z,10.65
2018-11-01T23:17:00.773Z,10.61
2018-11-01T23:19:29.901Z,10.60
2018-11-01T23:21:59.037Z,10.53
2018-11-01T23:24:28.277Z,10.49
2018-11-01T23:26:57.434Z,10.51
2018-11-01T23:29:26.574Z,10.53
2018-11-01T23:31:55.694Z,10.50
2018-11-01T23:34:24.862Z,10.46
2018-11-01T23:36:59.168Z,10.43
2018-11-01T23:39:33.981Z,10.43
2018-11-01T23:42:08.398Z,10.44
2018-11-01T23:44:42.760Z,10.49
2018-11-01T23:52:10.270Z,10.75
2018-11-01T23:54:39.374Z,10.89
2018-11-01T23:57:08.664Z,11.00
2018-11-01T23:59:37.805Z,11.10
